Bow Mar, Colorado
Current Conditions -  °F | °C
As of 3:53 PM on Monday 24 Nov 2014 (Local Time) from KAPA Reporting Station
Broken Clouds Broken Clouds  
Wind Chill: 24°   Ceiling: 4400
Heat Index: 30°   Visibility: 8mi
Dew Point: 21°   Wind: 6mph
Humidity: 69%   Direction: 340°NNW
Pressure: 30.09"   Gusts: NA
Location:  39.5977°N, 105.071°W
Report Text: KAPA 242253Z 34005KT 8SM FEW030 BKN044 BKN110 BKN200 M01/M06 A3009 RMK AO2 PK WND 36033/2227 WSHFT 2225 SNB30E53 SLP222 P0000 T10111061
Loading
Personal Weather Stations






























Interactive Weather Map New forecast layout! Learn more

10-Day Weather Forecast

Advertisements
Track Severe Weather on mobile